createdAt,value
2023-04-06T00:00:27.099Z,101174.84
2023-04-06T00:02:53.749Z,101173.56
2023-04-06T00:05:21.306Z,101165.56
2023-04-06T00:07:47.988Z,101167.03
2023-04-06T00:10:14.889Z,101169.66
2023-04-06T00:12:41.408Z,101174.13
2023-04-06T00:15:08.367Z,101163.72
2023-04-06T00:17:35.193Z,101159.19
2023-04-06T00:20:01.804Z,101162.72
2023-04-06T00:22:28.250Z,101156.56
2023-04-06T00:24:54.699Z,101153.50
2023-04-06T00:27:21.148Z,101155.28
2023-04-06T00:29:47.594Z,101158.94
2023-04-06T00:32:14.095Z,101156.38
2023-04-06T00:34:40.636Z,101150.31
2023-04-06T00:37:07.132Z,101145.34
2023-04-06T00:39:33.600Z,101144.56
2023-04-06T00:42:01.159Z,101151.31
2023-04-06T00:44:27.908Z,101149.81
2023-04-06T00:46:54.373Z,101141.50
2023-04-06T00:49:21.188Z,101148.94
2023-04-06T00:51:47.879Z,101146.19
2023-04-06T00:54:14.398Z,101137.41
2023-04-06T00:56:43.010Z,101138.16
2023-04-06T00:59:09.822Z,101140.22
2023-04-06T01:01:36.646Z,101133.81
2023-04-06T01:04:03.824Z,101134.16
2023-04-06T01:06:30.282Z,101128.09
2023-04-06T01:08:56.940Z,101137.75
2023-04-06T01:11:23.471Z,101127.34
2023-04-06T01:13:49.940Z,101130.09
2023-04-06T01:16:16.487Z,101119.34
2023-04-06T01:18:43.399Z,101129.69
2023-04-06T01:21:16.138Z,101126.44
2023-04-06T01:23:45.298Z,101124.63
2023-04-06T01:26:12.020Z,101129.47
2023-04-06T01:28:38.677Z,101126.75
2023-04-06T01:31:07.392Z,101123.16
2023-04-06T01:33:33.871Z,101124.22
2023-04-06T01:36:01.201Z,101126.16
2023-04-06T01:38:27.927Z,101119.09
2023-04-06T01:40:54.958Z,101120.59
2023-04-06T01:43:21.525Z,101122.56
2023-04-06T01:45:48.007Z,101115.34
2023-04-06T01:48:14.468Z,101114.16
2023-04-06T01:50:41.048Z,101116.56
2023-04-06T01:53:07.527Z,101117.78
2023-04-06T01:55:33.983Z,101127.34
2023-04-06T01:58:00.600Z,101118.53
2023-04-06T02:00:28.764Z,101124.22
2023-04-06T02:02:55.445Z,101115.75
2023-04-06T02:05:22.089Z,101109.91
2023-04-06T02:07:48.630Z,101119.38
2023-04-06T02:10:16.302Z,101122.00
2023-04-06T02:12:42.855Z,101121.38
2023-04-06T02:15:09.825Z,101114.84
2023-04-06T02:17:36.413Z,101119.56
2023-04-06T02:20:03.331Z,101109.75
2023-04-06T02:22:29.817Z,101099.66
2023-04-06T02:24:56.436Z,101107.63
2023-04-06T02:27:22.925Z,101109.50
2023-04-06T02:29:49.414Z,101109.00
2023-04-06T02:32:15.853Z,101111.59
2023-04-06T02:34:42.314Z,101107.41
2023-04-06T02:37:08.753Z,101103.38
2023-04-06T02:39:35.410Z,101105.44
2023-04-06T02:42:01.947Z,101100.22
2023-04-06T02:44:28.490Z,101098.56
2023-04-06T02:46:55.246Z,101102.75
2023-04-06T02:49:21.696Z,101105.25
2023-04-06T02:51:48.174Z,101097.50
2023-04-06T02:54:14.637Z,101096.63
2023-04-06T02:56:41.329Z,101093.31
2023-04-06T02:59:07.970Z,101096.63
2023-04-06T03:01:34.720Z,101096.03
2023-04-06T03:04:01.619Z,101091.75
2023-04-06T03:06:28.086Z,101093.00
2023-04-06T03:08:54.581Z,101090.84
2023-04-06T03:11:21.569Z,101095.44
2023-04-06T03:13:48.082Z,101094.84
2023-04-06T03:16:14.642Z,101101.00
2023-04-06T03:18:41.194Z,101091.16
2023-04-06T03:21:07.658Z,101086.66
2023-04-06T03:23:34.092Z,101095.97
2023-04-06T03:26:00.676Z,101094.59
2023-04-06T03:28:27.097Z,101091.13
2023-04-06T03:30:53.572Z,101097.22
2023-04-06T03:33:20.299Z,101099.25
2023-04-06T03:35:46.750Z,101099.50
2023-04-06T03:38:13.295Z,101096.97
2023-04-06T03:40:39.717Z,101096.56
2023-04-06T03:43:06.213Z,101100.91
2023-04-06T03:45:32.729Z,101103.88
2023-04-06T03:47:59.203Z,101108.13
2023-04-06T03:50:26.208Z,101103.63
2023-04-06T03:52:52.645Z,101103.50
2023-04-06T03:55:19.091Z,101105.41
2023-04-06T03:57:45.725Z,101101.88
2023-04-06T04:00:13.209Z,101099.50
2023-04-06T04:02:39.979Z,101112.53
2023-04-06T04:05:06.940Z,101106.97
2023-04-06T04:07:33.423Z,101096.53
2023-04-06T04:09:59.859Z,101103.75
2023-04-06T04:12:26.312Z,101110.34
2023-04-06T04:14:52.763Z,101119.19
2023-04-06T04:17:19.228Z,101111.16
2023-04-06T04:19:45.665Z,101115.31
2023-04-06T04:22:12.181Z,101112.31
2023-04-06T04:24:38.632Z,101122.66
2023-04-06T04:27:06.071Z,101117.25
2023-04-06T04:29:32.638Z,101107.97
2023-04-06T04:31:59.209Z,101113.28
2023-04-06T04:34:26.202Z,101118.56
2023-04-06T04:36:53.353Z,101120.28
2023-04-06T04:39:19.810Z,101112.50
2023-04-06T04:41:46.237Z,101120.19
2023-04-06T04:44:12.789Z,101120.78
2023-04-06T04:46:39.859Z,101115.94
2023-04-06T04:49:06.508Z,101118.03
2023-04-06T04:51:33.692Z,101122.31
2023-04-06T04:54:00.333Z,101118.31
2023-04-06T04:56:28.501Z,101114.03
2023-04-06T04:58:55.123Z,101116.16
2023-04-06T05:01:21.720Z,101116.81
2023-04-06T05:03:48.373Z,101114.31
2023-04-06T05:06:14.955Z,101111.34
2023-04-06T05:08:42.484Z,101114.09
2023-04-06T05:11:09.994Z,101116.31
2023-04-06T05:13:36.564Z,101114.94
2023-04-06T05:16:03.149Z,101105.16
2023-04-06T05:18:29.764Z,101111.50
2023-04-06T05:20:56.383Z,101115.13
2023-04-06T05:23:22.843Z,101118.56
2023-04-06T05:25:50.076Z,101109.41
2023-04-06T05:28:16.945Z,101107.72
2023-04-06T05:30:44.309Z,101106.22
2023-04-06T05:33:12.030Z,101108.91
2023-04-06T05:35:38.680Z,101106.66
2023-04-06T05:38:08.961Z,101100.28
2023-04-06T05:40:35.569Z,101092.63
2023-04-06T05:43:02.076Z,101093.94
2023-04-06T05:45:28.563Z,101103.75
2023-04-06T05:47:55.150Z,101097.97
2023-04-06T05:50:21.674Z,101105.69
2023-04-06T05:52:48.214Z,101109.09
2023-04-06T05:55:14.717Z,101101.13
2023-04-06T05:57:41.179Z,101108.66
2023-04-06T06:00:10.834Z,101109.16
2023-04-06T06:02:37.843Z,101098.34
2023-04-06T06:05:04.628Z,101098.13
2023-04-06T06:07:31.069Z,101094.38
2023-04-06T06:09:59.131Z,101101.47
2023-04-06T06:12:25.631Z,101099.06
2023-04-06T06:14:52.077Z,101101.53
2023-04-06T06:17:18.528Z,101096.78
2023-04-06T06:19:45.250Z,101099.91
2023-04-06T06:22:12.029Z,101094.41
2023-04-06T06:24:38.529Z,101094.75
2023-04-06T06:27:05.021Z,101088.84
2023-04-06T06:29:31.520Z,101092.81
2023-04-06T06:31:58.131Z,101099.44
2023-04-06T06:34:24.640Z,101098.09
2023-04-06T06:36:52.956Z,101097.47
2023-04-06T06:39:19.476Z,101099.41
2023-04-06T06:41:46.023Z,101087.31
2023-04-06T06:44:12.592Z,101087.75
2023-04-06T06:46:39.058Z,101098.00
2023-04-06T06:49:05.549Z,101098.41
2023-04-06T06:51:32.028Z,101110.72
2023-04-06T06:53:58.519Z,101099.94
2023-04-06T06:56:25.081Z,101098.44
2023-04-06T06:58:51.609Z,101100.19
2023-04-06T07:01:18.692Z,101099.19
2023-04-06T07:03:45.443Z,101091.28
2023-04-06T07:06:11.961Z,101111.72
2023-04-06T07:08:38.439Z,101095.19
2023-04-06T07:11:05.205Z,101093.72
2023-04-06T07:13:31.694Z,101107.03
2023-04-06T07:15:58.171Z,101096.13
2023-04-06T07:18:24.823Z,101088.88
2023-04-06T07:20:51.271Z,101092.69
2023-04-06T07:23:17.863Z,101094.25
2023-04-06T07:25:44.328Z,101092.31
2023-04-06T07:28:11.214Z,101094.28
2023-04-06T07:30:41.589Z,101090.34
2023-04-06T07:33:08.216Z,101089.38
2023-04-06T07:35:35.812Z,101089.34
2023-04-06T07:38:02.415Z,101078.72
2023-04-06T07:40:29.212Z,101080.09
2023-04-06T07:42:56.816Z,101086.81
2023-04-06T07:45:24.551Z,101071.75
2023-04-06T07:47:51.166Z,101065.81
2023-04-06T07:50:17.924Z,101070.88
2023-04-06T07:52:44.443Z,101068.53
2023-04-06T07:55:10.900Z,101091.09
2023-04-06T07:57:37.402Z,101078.13
2023-04-06T08:00:04.783Z,101073.88
2023-04-06T08:02:33.023Z,101074.22
2023-04-06T08:04:59.661Z,101069.28
2023-04-06T08:07:26.319Z,101064.91
2023-04-06T08:09:53.107Z,101069.09
2023-04-06T08:12:19.566Z,101066.28
2023-04-06T08:14:46.026Z,101080.81
2023-04-06T08:17:12.671Z,101072.47
2023-04-06T08:19:39.127Z,101066.97
2023-04-06T08:22:05.617Z,101076.94
2023-04-06T08:24:33.331Z,101071.63
2023-04-06T08:26:59.921Z,101069.47
2023-04-06T08:29:26.386Z,101060.53
2023-04-06T08:31:52.899Z,101065.19
2023-04-06T08:34:19.489Z,101064.97
2023-04-06T08:36:46.933Z,101066.72
2023-04-06T08:39:13.432Z,101066.19
2023-04-06T08:41:42.946Z,101073.47
2023-04-06T08:44:09.934Z,101069.81
2023-04-06T08:46:36.646Z,101068.38
2023-04-06T08:49:04.260Z,101063.22
2023-04-06T08:51:34.092Z,101064.28
2023-04-06T08:54:01.200Z,101070.41
2023-04-06T08:56:29.389Z,101067.78
2023-04-06T08:58:56.941Z,101067.91
2023-04-06T09:01:28.681Z,101083.50
2023-04-06T09:04:01.321Z,101088.97
2023-04-06T09:06:28.380Z,101080.75
2023-04-06T09:08:55.890Z,101083.16
2023-04-06T09:11:22.529Z,101080.19
2023-04-06T09:13:54.060Z,101078.56
2023-04-06T09:16:21.792Z,101074.72
2023-04-06T09:18:49.126Z,101076.06
2023-04-06T09:21:19.833Z,101078.53
2023-04-06T09:23:47.218Z,101083.06
2023-04-06T09:26:15.933Z,101066.41
2023-04-06T09:28:49.783Z,101062.03
2023-04-06T09:31:23.294Z,101056.72
2023-04-06T09:33:49.877Z,101055.81
2023-04-06T09:36:16.861Z,101052.09
2023-04-06T09:38:57.214Z,101056.66
2023-04-06T09:41:31.291Z,101051.19
2023-04-06T09:44:04.826Z,101050.13
2023-04-06T09:46:50.605Z,101056.28
2023-04-06T09:49:23.832Z,101035.84
2023-04-06T09:51:56.705Z,101045.00
2023-04-06T09:54:24.332Z,101049.84
2023-04-06T09:57:03.068Z,101036.88
2023-04-06T09:59:29.637Z,101042.78
2023-04-06T10:01:59.336Z,101036.84
2023-04-06T10:04:35.103Z,101031.19
2023-04-06T10:07:03.259Z,101026.03
2023-04-06T10:09:36.873Z,101034.50
2023-04-06T10:12:07.417Z,101036.97
2023-04-06T10:14:38.517Z,101027.78
2023-04-06T10:17:06.031Z,101033.38
2023-04-06T10:19:54.871Z,101022.31
2023-04-06T10:22:30.704Z,101028.88
2023-04-06T10:24:57.186Z,101031.22
2023-04-06T10:27:30.815Z,101024.53
2023-04-06T10:30:04.250Z,101019.53
2023-04-06T10:32:38.399Z,101016.44
2023-04-06T10:35:12.601Z,101015.84
2023-04-06T10:37:51.412Z,101011.69
2023-04-06T10:40:26.132Z,101012.38
2023-04-06T10:42:56.820Z,101007.31
2023-04-06T10:45:25.461Z,101004.00
2023-04-06T10:47:56.009Z,101008.44
2023-04-06T10:50:24.129Z,101004.66
2023-04-06T10:53:03.829Z,100994.44
2023-04-06T10:55:30.849Z,101007.88
2023-04-06T10:57:57.419Z,101002.56
2023-04-06T11:00:24.432Z,100990.31
2023-04-06T11:02:52.151Z,100987.22
2023-04-06T11:05:18.711Z,100994.50
2023-04-06T11:07:45.576Z,100992.09
2023-04-06T11:10:16.911Z,100989.16
2023-04-06T11:12:45.030Z,100990.28
2023-04-06T11:15:11.779Z,100996.25
2023-04-06T11:17:38.379Z,100995.91
2023-04-06T11:20:10.878Z,100978.03
2023-04-06T11:22:37.623Z,100977.16
2023-04-06T11:27:37.763Z,100982.78
2023-04-06T11:30:04.711Z,100982.25
2023-04-06T11:32:40.249Z,100973.50
2023-04-06T11:37:38.463Z,100980.88
2023-04-06T11:40:09.269Z,100963.88
2023-04-06T11:42:36.555Z,100969.84
2023-04-06T11:45:03.330Z,100971.19
2023-04-06T11:47:31.971Z,100960.00
2023-04-06T11:50:15.511Z,100954.41
2023-04-06T11:52:42.660Z,100955.06
2023-04-06T11:55:14.951Z,100953.41
2023-04-06T11:57:42.264Z,100963.56
2023-04-06T12:00:13.329Z,100950.34
2023-04-06T12:02:40.853Z,100938.81
2023-04-06T12:05:09.243Z,100952.03
2023-04-06T12:07:36.188Z,100950.94
2023-04-06T12:10:04.160Z,100947.47
2023-04-06T12:12:31.107Z,100949.47
2023-04-06T12:14:58.010Z,100940.81
2023-04-06T12:17:24.853Z,100944.31
2023-04-06T12:19:51.745Z,100946.34
2023-04-06T12:22:18.985Z,100940.03
2023-04-06T12:24:45.625Z,100936.47
2023-04-06T12:27:12.519Z,100941.19
2023-04-06T12:29:39.638Z,100928.72
2023-04-06T12:32:07.098Z,100933.31
2023-04-06T12:34:33.589Z,100932.66
2023-04-06T12:37:00.619Z,100928.50
2023-04-06T12:39:28.799Z,100918.56
2023-04-06T12:41:56.271Z,100931.28
2023-04-06T12:44:23.667Z,100922.28
2023-04-06T12:46:51.459Z,100923.50
2023-04-06T12:49:19.995Z,100918.16
2023-04-06T12:51:46.607Z,100911.53
2023-04-06T12:54:13.105Z,100918.03
2023-04-06T12:56:39.947Z,100914.59
2023-04-06T12:59:06.484Z,100913.88
2023-04-06T13:01:33.966Z,100909.59
2023-04-06T13:04:00.536Z,100910.63
2023-04-06T13:06:30.213Z,100904.28
2023-04-06T13:08:56.962Z,100897.75
2023-04-06T13:11:26.902Z,100902.56
2023-04-06T13:13:54.295Z,100890.94
2023-04-06T13:16:20.864Z,100895.16
2023-04-06T13:18:47.397Z,100893.59
2023-04-06T13:21:17.463Z,100888.56
2023-04-06T13:23:44.808Z,100890.41
2023-04-06T13:26:11.470Z,100893.19
2023-04-06T13:28:39.717Z,100879.84
2023-04-06T13:31:07.432Z,100881.44
2023-04-06T13:33:34.212Z,100883.03
2023-04-06T13:36:01.126Z,100872.91
2023-04-06T13:38:27.884Z,100873.53
2023-04-06T13:40:54.872Z,100865.91
2023-04-06T13:43:21.677Z,100860.78
2023-04-06T13:45:52.938Z,100875.75
2023-04-06T13:48:19.652Z,100874.72
2023-04-06T13:50:46.788Z,100866.06
2023-04-06T13:53:13.796Z,100855.25
2023-04-06T13:55:40.331Z,100856.22
2023-04-06T13:58:06.753Z,100854.47
2023-04-06T14:00:33.202Z,100854.75
2023-04-06T14:02:59.808Z,100845.06
2023-04-06T14:05:28.675Z,100852.19
2023-04-06T14:07:55.512Z,100851.31
2023-04-06T14:10:24.665Z,100844.91
2023-04-06T14:12:51.349Z,100840.72
2023-04-06T14:15:18.488Z,100847.72
2023-04-06T14:17:45.156Z,100840.22
2023-04-06T14:20:15.034Z,100856.41
2023-04-06T14:22:43.745Z,100842.66
2023-04-06T14:25:12.014Z,100843.84
2023-04-06T14:27:38.441Z,100842.53
2023-04-06T14:30:05.279Z,100835.25
2023-04-06T14:32:31.748Z,100835.25
2023-04-06T14:34:58.158Z,100832.03
2023-04-06T14:37:24.549Z,100827.66
2023-04-06T14:39:50.992Z,100827.72
2023-04-06T14:42:17.446Z,100838.22
2023-04-06T14:44:46.111Z,100845.59
2023-04-06T14:47:12.843Z,100838.44
2023-04-06T14:49:39.308Z,100831.34
2023-04-06T14:52:05.917Z,100833.97
2023-04-06T14:54:32.432Z,100823.72
2023-04-06T14:56:58.964Z,100831.59
2023-04-06T14:59:25.552Z,100824.97
2023-04-06T15:01:52.487Z,100818.28
2023-04-06T15:04:19.123Z,100816.16
2023-04-06T15:06:45.763Z,100823.19
2023-04-06T15:09:12.216Z,100810.25
2023-04-06T15:11:39.195Z,100811.94
2023-04-06T15:14:07.214Z,100811.03
2023-04-06T15:16:33.893Z,100826.03
2023-04-06T15:19:01.326Z,100810.72
2023-04-06T15:21:27.933Z,100829.31
2023-04-06T15:23:54.836Z,100815.28
2023-04-06T15:26:21.974Z,100811.63
2023-04-06T15:28:48.416Z,100807.09
2023-04-06T15:33:48.634Z,100811.78
2023-04-06T15:36:29.374Z,100806.06
2023-04-06T15:38:57.582Z,100803.22
2023-04-06T15:41:24.188Z,100807.03
2023-04-06T15:43:51.468Z,100805.03
2023-04-06T15:46:17.944Z,100804.69
2023-04-06T15:48:44.920Z,100802.09
2023-04-06T15:51:11.549Z,100802.53
2023-04-06T15:53:38.919Z,100801.81
2023-04-06T15:56:08.554Z,100808.97
2023-04-06T15:58:35.832Z,100805.63
2023-04-06T16:01:14.379Z,100807.03
2023-04-06T16:03:41.002Z,100798.13
2023-04-06T16:06:08.885Z,100797.56
2023-04-06T16:08:36.718Z,100810.31
2023-04-06T16:11:03.364Z,100808.81
2023-04-06T16:13:29.876Z,100801.97
2023-04-06T16:15:56.405Z,100815.50
2023-04-06T16:18:22.889Z,100808.47
2023-04-06T16:20:49.638Z,100807.19
2023-04-06T16:23:16.496Z,100811.34
2023-04-06T16:25:42.941Z,100802.88
2023-04-06T16:28:09.441Z,100803.28
2023-04-06T16:30:40.922Z,100799.03
2023-04-06T16:33:09.222Z,100803.78
2023-04-06T16:35:35.920Z,100807.41
2023-04-06T16:38:02.324Z,100815.16
2023-04-06T16:40:28.774Z,100795.34
2023-04-06T16:42:56.189Z,100805.31
2023-04-06T16:45:22.625Z,100803.16
2023-04-06T16:47:50.465Z,100812.84
2023-04-06T16:50:17.471Z,100815.94
2023-04-06T16:52:44.007Z,100804.22
2023-04-06T16:55:11.085Z,100811.47
2023-04-06T16:57:37.685Z,100804.72
2023-04-06T17:00:05.714Z,100813.84
2023-04-06T17:02:35.991Z,100806.53
2023-04-06T17:05:04.118Z,100806.13
2023-04-06T17:07:35.592Z,100800.09
2023-04-06T17:10:02.901Z,100805.69
2023-04-06T17:12:29.816Z,100809.25
2023-04-06T17:14:56.857Z,100805.16
2023-04-06T17:17:23.452Z,100811.69
2023-04-06T17:19:50.033Z,100812.59
2023-04-06T17:22:20.618Z,100806.59
2023-04-06T17:24:48.679Z,100813.28
2023-04-06T17:27:15.890Z,100807.50
2023-04-06T17:29:42.605Z,100811.72
2023-04-06T17:32:09.264Z,100813.13
2023-04-06T17:34:35.788Z,100813.94
2023-04-06T17:37:02.466Z,100808.03
2023-04-06T17:39:28.934Z,100815.25
2023-04-06T17:41:55.366Z,100813.69
2023-04-06T17:44:21.835Z,100821.94
2023-04-06T17:46:48.350Z,100820.22
2023-04-06T17:49:14.904Z,100817.66
2023-04-06T17:51:41.326Z,100832.06
2023-04-06T17:54:07.750Z,100824.66
2023-04-06T17:56:34.179Z,100826.16
2023-04-06T17:59:01.298Z,100827.75
2023-04-06T18:01:28.023Z,100825.22
2023-04-06T18:03:54.646Z,100826.84
2023-04-06T18:06:25.116Z,100832.19
2023-04-06T18:08:52.408Z,100837.16
2023-04-06T18:11:19.779Z,100838.34
2023-04-06T18:13:46.246Z,100841.38
2023-04-06T18:16:12.942Z,100834.72
2023-04-06T18:18:39.428Z,100848.59
2023-04-06T18:21:06.561Z,100844.97
2023-04-06T18:23:37.615Z,100854.84
2023-04-06T18:26:05.563Z,100853.88
2023-04-06T18:28:32.332Z,100855.16
2023-04-06T18:30:59.697Z,100856.56
2023-04-06T18:33:29.052Z,100862.19
2023-04-06T18:35:56.651Z,100862.44
2023-04-06T18:38:24.094Z,100858.16
2023-04-06T18:40:51.363Z,100857.69
2023-04-06T18:43:17.799Z,100860.75
2023-04-06T18:45:44.765Z,100867.66
2023-04-06T18:48:12.059Z,100859.06
2023-04-06T18:50:38.631Z,100869.63
2023-04-06T18:53:05.189Z,100870.31
2023-04-06T18:55:34.837Z,100882.94
2023-04-06T18:58:01.416Z,100874.38
2023-04-06T19:00:28.009Z,100880.06
2023-04-06T19:02:54.842Z,100876.66
2023-04-06T19:05:22.464Z,100897.91
2023-04-06T19:07:52.580Z,100878.78
2023-04-06T19:10:19.576Z,100881.78
2023-04-06T19:12:46.734Z,100882.09
2023-04-06T19:15:13.533Z,100895.16
2023-04-06T19:17:40.044Z,100890.59
2023-04-06T19:20:07.446Z,100885.53
2023-04-06T19:22:37.718Z,100900.97
2023-04-06T19:25:05.574Z,100890.34
2023-04-06T19:27:32.229Z,100898.94
2023-04-06T19:30:00.008Z,100894.34
2023-04-06T19:32:27.000Z,100883.22
2023-04-06T19:34:53.736Z,100901.41
2023-04-06T19:37:20.194Z,100893.25
2023-04-06T19:39:47.704Z,100885.00
2023-04-06T19:42:15.540Z,100903.75
2023-04-06T19:44:42.232Z,100913.72
2023-04-06T19:47:08.893Z,100903.66
2023-04-06T19:49:35.430Z,100907.09
2023-04-06T19:52:01.878Z,100909.41
2023-04-06T19:54:28.323Z,100906.47
2023-04-06T19:56:54.872Z,100897.03
2023-04-06T19:59:21.594Z,100901.06
2023-04-06T20:01:48.200Z,100906.34
2023-04-06T20:04:14.953Z,100904.78
2023-04-06T20:06:41.571Z,100918.41
2023-04-06T20:09:08.172Z,100904.66
2023-04-06T20:11:35.978Z,100896.34
2023-04-06T20:14:02.582Z,100904.53
2023-04-06T20:16:29.114Z,100897.31
2023-04-06T20:18:55.557Z,100906.09
2023-04-06T20:21:22.179Z,100902.13
2023-04-06T20:23:48.711Z,100903.94
2023-04-06T20:26:15.686Z,100910.91
2023-04-06T20:28:42.477Z,100903.34
2023-04-06T20:31:08.937Z,100904.47
2023-04-06T20:33:35.479Z,100904.00
2023-04-06T20:36:02.156Z,100906.34
2023-04-06T20:40:59.596Z,100896.31
2023-04-06T20:43:28.475Z,100895.66
2023-04-06T20:45:59.130Z,100918.31
2023-04-06T20:48:26.086Z,100902.00
2023-04-06T20:50:52.940Z,100900.81
2023-04-06T20:53:20.658Z,100913.91
2023-04-06T20:55:47.504Z,100912.34
2023-04-06T20:58:16.019Z,100907.47
2023-04-06T21:00:42.525Z,100912.13
2023-04-06T21:03:09.269Z,100906.19
2023-04-06T21:05:36.087Z,100921.19
2023-04-06T21:08:02.612Z,100911.84
2023-04-06T21:10:29.145Z,100917.19
2023-04-06T21:12:55.710Z,100919.91
2023-04-06T21:15:22.707Z,100915.25
2023-04-06T21:17:49.505Z,100911.56
2023-04-06T21:20:16.178Z,100907.84
2023-04-06T21:22:42.647Z,100903.25
2023-04-06T21:25:09.413Z,100911.94
2023-04-06T21:27:35.852Z,100911.28
2023-04-06T21:30:02.296Z,100916.41
2023-04-06T21:32:29.954Z,100903.25
2023-04-06T21:34:56.387Z,100900.13
2023-04-06T21:37:22.871Z,100906.13
2023-04-06T21:39:49.517Z,100906.09
2023-04-06T21:42:15.986Z,100920.47
2023-04-06T21:44:42.409Z,100906.59
2023-04-06T21:47:08.850Z,100908.44
2023-04-06T21:49:35.342Z,100896.00
2023-04-06T21:52:01.876Z,100910.53
2023-04-06T21:54:33.085Z,100913.47
2023-04-06T21:56:59.862Z,100907.63
2023-04-06T21:59:26.341Z,100905.19
2023-04-06T22:01:54.231Z,100900.34
2023-04-06T22:04:25.690Z,100895.34
2023-04-06T22:06:52.247Z,100904.63
2023-04-06T22:09:18.670Z,100898.03
2023-04-06T22:11:45.281Z,100895.41
2023-04-06T22:14:12.707Z,100891.66
2023-04-06T22:16:39.344Z,100906.09
2023-04-06T22:19:05.882Z,100897.63
2023-04-06T22:21:32.395Z,100895.72
2023-04-06T22:23:58.949Z,100889.31
2023-04-06T22:26:26.239Z,100901.53
2023-04-06T22:28:52.988Z,100890.91
2023-04-06T22:31:19.449Z,100892.22
2023-04-06T22:33:45.869Z,100899.88
2023-04-06T22:36:12.557Z,100902.06
2023-04-06T22:38:39.049Z,100899.63
2023-04-06T22:41:07.180Z,100902.47
2023-04-06T22:43:34.834Z,100890.06
2023-04-06T22:46:01.425Z,100896.34
2023-04-06T22:48:27.970Z,100894.25
2023-04-06T22:50:54.610Z,100895.69
2023-04-06T22:53:21.058Z,100900.50
2023-04-06T22:55:47.616Z,100905.13
2023-04-06T22:58:14.078Z,100893.75
2023-04-06T23:00:40.547Z,100895.91
2023-04-06T23:03:07.067Z,100897.34
2023-04-06T23:05:33.654Z,100892.66
2023-04-06T23:08:00.147Z,100893.84
2023-04-06T23:10:26.645Z,100900.50
2023-04-06T23:12:53.102Z,100895.00
2023-04-06T23:15:19.557Z,100895.47
2023-04-06T23:17:46.049Z,100897.00
2023-04-06T23:20:12.562Z,100923.00
2023-04-06T23:22:38.985Z,100895.56
2023-04-06T23:25:07.567Z,100884.88
2023-04-06T23:27:34.018Z,100905.41
2023-04-06T23:30:00.454Z,100889.91
2023-04-06T23:32:26.992Z,100889.31
2023-04-06T23:34:53.457Z,100899.53
2023-04-06T23:37:19.921Z,100889.06
2023-04-06T23:39:48.268Z,100888.53
2023-04-06T23:42:14.720Z,100891.44
2023-04-06T23:44:41.318Z,100886.69
2023-04-06T23:47:07.961Z,100886.59
2023-04-06T23:49:34.618Z,100877.50
2023-04-06T23:52:01.109Z,100885.53
2023-04-06T23:54:27.518Z,100900.72
2023-04-06T23:56:53.997Z,100888.81
2023-04-06T23:59:20.443Z,100882.84
